Aérodrome :
LOGIN :

S'inscrire | Disclaimer

   EN    FR    IT 

 










Légende :    VFR   VFR Marginal   IFR   IFR Intensif   IFR Très Intensif
Visi : 
Plafond : 
>= 8 km
>= 3000ft
5 à 8 km
1000 à 3000 ft
1500m à 5 km
500 à 1000 ft
800 à 1500m
200 à 500 ft
< 800m
< 200 ft
Symboles :   Orages  Brouillard  Fortes neiges  Fortes précipitations  Vent > 20 kt
SIGMETs :   Divers  Orages  Givrage  Turbulence  Onde Orograph.  Cendres Volcan.







- Altitude de l'aérodrome : 247 ft
- Code IATA : BLL


EKBI - Billund

DERNIER METAR :
  • 171050Z AUTO 25011KT 230V290 9999NDV FEW035/// 19/10 Q1016

METARs EXPIRÉS :
  • 171020Z AUTO 25010KT 220V290 9999NDV SCT032/// 19/11 Q1016
  • 170950Z AUTO 24010KT 220V280 9999NDV FEW031/// 20/11 Q1016
  • 170920Z AUTO 24009KT 210V270 9999NDV FEW030/// 19/12 Q1016
  • 170850Z AUTO 24009KT 210V270 9999NDV SCT027/// 19/12 Q1016
  • 170820Z AUTO 25008KT 9999NDV NCD 19/13 Q1015

TAF TAF EKBI
Valide du 17 à 06h jusqu'au 18 à 06h UTC


170454Z 1706/1806 20008KT 9999 BKN040
TEMPO 1706/1708 4000 RADZ BR BKN012 SCT030CB
BECMG 1709/1711 27010KT
BECMG 1719/1722 21005KT
Pas de NOTAMs connus pour ce terrain.



MET'MAP, la Météo Aéronautique d'un coup d'oeil ! - Copyright ORBIFLY Décembre 2007 - Disclaimer

ORBIFLY MET'MAP TEAM :

Programmation & Développement : Alexandra Zaïnal
Conception & Développement : Baudouin d'Aumeries
Co-Programmation & Développement : Marc-Olivier Méhu
Soutien technique & logistique : Manuel Goepfert

Contact : metmap@orbifly.com




SOURCES & CREDITS :

   NOAA